Deckers, Colorado
Current Conditions -  °F | °C
As of 8:53 PM on Wednesday 26 Nov 2014 (Local Time) from KAPA Reporting Station
Few Clouds Few Clouds  
Wind Chill: 30°   Ceiling: Unl
Heat Index: 30°   Visibility: 10mi
Dew Point: 25°   Wind: 3mph
Humidity: 82%   Direction: 140°SE
Pressure: 30.23"   Gusts: NA
Location:  39.3043°N, 105.131°W
Report Text: KAPA 270353Z 14003KT 10SM FEW140 M01/M04 A3023 RMK AO2 SLP269 T10111039
Loading
Personal Weather Stations






























Interactive Weather Map New forecast layout! Learn more

10-Day Weather Forecast

Advertisements
Track Severe Weather on mobile